Cloverdale, Michigan
Current Conditions -  °F | °C
As of 4:53 AM on Saturday 25 Oct 2014 (Local Time) from KBTL Reporting Station
Overcast Overcast  
Wind Chill: 53°   Ceiling: 4100
Heat Index: 53°   Visibility: 7mi
Dew Point: 48°   Wind: 8mph
Humidity: 83%   Direction: 220°SW
Pressure: 29.87"   Gusts: NA
Location:  42.56°N, 85.43°W
Report Text: KBTL 250853Z 22007KT 7SM OVC041 12/09 A2987 RMK AO2 SLP114 T01170089 58021
Loading
Personal Weather Stations






























Interactive Weather Map New forecast layout! Learn more

10-Day Weather Forecast

Advertisements
Track Severe Weather on mobile